Time;durP1;ratioP1;P1;durP2;ratioP2;P2;SDS_P1;SDS_P2;PMS_P1;PMS_P2;Temp;Humidity;BMP_temperature;BMP_pressure;BME280_temperature;BME280_humidity;BME280_pressure;Samples;Min_cycle;Max_cycle;Signal;HPM_P1;HPM_P2
2023/01/14 00:01:59;;;;;;;;;;;7.70;99.90;;;;;;5095996;28;19908;-70
2023/01/14 00:04:24;;;;;;;;;;;7.70;99.90;;;;;;5096080;28;19915;-71
2023/01/14 00:06:50;;;;;;;;;;;7.80;99.90;;;;;;5096124;28;19915;-71
2023/01/14 00:09:15;;;;;;;;;;;7.70;99.90;;;;;;5095202;28;19925;-70
2023/01/14 00:11:47;;;;;;;;;;;7.70;99.90;;;;;;5096006;28;20000;-71
2023/01/14 00:14:18;;;;;;;;;;;7.60;99.90;;;;;;5096142;28;19912;-70
2023/01/14 00:16:44;;;;;;;;;;;7.60;99.90;;;;;;5096007;28;20351;-70
2023/01/14 00:19:09;;;;;;;;;;;7.60;99.90;;;;;;5095693;28;19944;-70
2023/01/14 00:21:35;;;;;;;;;;;7.70;99.90;;;;;;5096025;28;20275;-70
2023/01/14 00:24:01;;;;;;;;;;;7.70;99.90;;;;;;5095990;28;19970;-69
2023/01/14 00:26:27;;;;;;;;;;;7.70;99.90;;;;;;5095712;28;19912;-71
2023/01/14 00:28:52;;;;;;;;;;;7.60;99.90;;;;;;5095818;28;19977;-69
2023/01/14 00:31:20;;;;;;;;;;;7.60;99.90;;;;;;5095639;28;19908;-69
2023/01/14 00:33:45;;;;;;;;;;;7.60;99.90;;;;;;5094331;28;20280;-70
2023/01/14 00:36:12;;;;;;;;;;;7.60;99.90;;;;;;5094321;28;20013;-70
2023/01/14 00:38:37;;;;;;;;;;;7.50;99.90;;;;;;5094217;28;19915;-70
2023/01/14 00:41:03;;;;;;;;;;;7.50;99.90;;;;;;5094145;28;19912;-70
2023/01/14 00:43:28;;;;;;;;;;;7.40;99.90;;;;;;5094534;28;19908;-71
2023/01/14 00:45:54;;;;;;;;;;;7.40;99.90;;;;;;5096067;28;20001;-71
2023/01/14 00:48:19;;;;;;;;;;;7.50;99.90;;;;;;5085730;28;19959;-70
2023/01/14 00:50:45;;;;;;;;;;;7.50;99.90;;;;;;5075075;28;19909;-70
2023/01/14 00:53:10;;;;;;;;;;;7.40;99.90;;;;;;5073662;28;19909;-70
2023/01/14 00:55:35;;;;;;;;;;;7.40;99.90;;;;;;5073264;28;19962;-70
2023/01/14 00:58:01;;;;;;;;;;;7.50;99.90;;;;;;5075775;28;19908;-71
2023/01/14 01:00:26;;;;;;;;;;;7.50;99.90;;;;;;5074693;28;19955;-70
2023/01/14 01:02:52;;;;;;;;;;;7.50;99.90;;;;;;5074500;28;19919;-70
2023/01/14 01:05:18;;;;;;;;;;;7.50;99.90;;;;;;5073345;28;20365;-70
2023/01/14 01:07:43;;;;;;;;;;;7.50;99.90;;;;;;5074339;28;20019;-70
2023/01/14 01:10:09;;;;;;;;;;;7.50;99.90;;;;;;5074850;28;19919;-70
2023/01/14 01:12:34;;;;;;;;;;;7.40;99.90;;;;;;5073259;28;19956;-70
2023/01/14 01:15:00;;;;;;;;;;;7.40;99.90;;;;;;5077734;28;19916;-69
2023/01/14 01:17:25;;;;;;;;;;;7.50;99.90;;;;;;5074484;28;19975;-70
2023/01/14 01:19:54;;;;;;;;;;;7.50;99.90;;;;;;5074424;28;19908;-70
2023/01/14 01:22:19;;;;;;;;;;;7.50;99.90;;;;;;5074736;28;19935;-70
2023/01/14 01:24:45;;;;;;;;;;;7.40;99.90;;;;;;5074383;28;19909;-70
2023/01/14 01:27:10;;;;;;;;;;;7.40;99.90;;;;;;5073984;28;19912;-70
2023/01/14 01:29:36;;;;;;;;;;;7.40;99.90;;;;;;5074566;28;20016;-70
2023/01/14 01:32:01;;;;;;;;;;;7.40;99.90;;;;;;5075154;28;19908;-70
2023/01/14 01:34:27;;;;;;;;;;;7.30;99.90;;;;;;5076101;28;19916;-69
2023/01/14 01:36:52;;;;;;;;;;;7.30;99.90;;;;;;5073172;28;19912;-69
2023/01/14 01:39:18;;;;;;;;;;;7.40;99.90;;;;;;5072664;28;19912;-70
2023/01/14 01:41:43;;;;;;;;;;;7.30;99.90;;;;;;5074082;28;20387;-69
2023/01/14 01:44:11;;;;;;;;;;;7.30;99.90;;;;;;5092861;28;20277;-70
2023/01/14 01:46:37;;;;;;;;;;;7.30;99.90;;;;;;5094549;28;19912;-70
2023/01/14 01:49:06;;;;;;;;;;;7.20;99.90;;;;;;5094341;28;19916;-70
2023/01/14 01:51:34;;;;;;;;;;;7.30;99.90;;;;;;5093218;28;19909;-70
2023/01/14 01:54:00;;;;;;;;;;;7.30;99.90;;;;;;5094282;28;19923;-70
2023/01/14 01:56:28;;;;;;;;;;;7.30;99.90;;;;;;5094201;28;20019;-69
2023/01/14 01:58:55;;;;;;;;;;;7.30;99.90;;;;;;5094004;28;20336;-70
2023/01/14 02:01:20;;;;;;;;;;;7.30;99.90;;;;;;5094097;28;20322;-70
2023/01/14 02:03:47;;;;;;;;;;;7.20;99.90;;;;;;5093814;28;19918;-69
2023/01/14 02:06:14;;;;;;;;;;;7.20;99.90;;;;;;5093954;28;19919;-70
2023/01/14 02:08:40;;;;;;;;;;;7.30;99.90;;;;;;5094365;28;19919;-69
2023/01/14 02:11:25;;;;;;;;;;;7.30;99.90;;;;;;5093847;28;20010;-70
2023/01/14 02:14:16;;;;;;;;;;;7.40;99.90;;;;;;5092342;28;19916;-70
2023/01/14 02:16:47;;;;;;;;;;;7.30;99.90;;;;;;5092362;28;20323;-69
2023/01/14 02:19:18;;;;;;;;;;;7.30;99.90;;;;;;5096586;28;20257;-70
2023/01/14 02:21:57;;;;;;;;;;;7.30;99.90;;;;;;5093944;28;19942;-70
2023/01/14 02:24:25;;;;;;;;;;;7.30;99.90;;;;;;5092242;28;20322;-71
2023/01/14 02:26:53;;;;;;;;;;;7.40;99.90;;;;;;5091764;28;20365;-70
2023/01/14 02:29:25;;;;;;;;;;;7.30;99.90;;;;;;5092170;28;19935;-70
2023/01/14 02:31:54;;;;;;;;;;;7.30;99.90;;;;;;5093108;28;19908;-69
2023/01/14 02:34:24;;;;;;;;;;;7.30;99.90;;;;;;5093421;28;19908;-70
2023/01/14 02:37:10;;;;;;;;;;;7.30;99.90;;;;;;5094239;28;20009;-70
2023/01/14 02:39:38;;;;;;;;;;;7.30;99.90;;;;;;5093383;28;20002;-70
2023/01/14 02:45:07;;;;;;;;;;;7.40;99.90;;;;;;5074104;28;19920;-70
2023/01/14 02:47:33;;;;;;;;;;;7.40;99.90;;;;;;5073226;28;19913;-70
2023/01/14 02:49:59;;;;;;;;;;;7.40;99.90;;;;;;5071602;28;19915;-70
2023/01/14 02:52:25;;;;;;;;;;;7.40;99.90;;;;;;5072803;28;19909;-70
2023/01/14 02:54:58;;;;;;;;;;;7.40;99.90;;;;;;5073347;28;19916;-70
2023/01/14 02:57:26;;;;;;;;;;;7.50;99.90;;;;;;5072795;28;19964;-70
2023/01/14 03:00:04;;;;;;;;;;;7.40;99.90;;;;;;5073092;28;19952;-69
2023/01/14 03:02:29;;;;;;;;;;;7.50;99.90;;;;;;5072023;28;19908;-71
2023/01/14 03:05:24;;;;;;;;;;;7.40;99.90;;;;;;5072649;28;20365;-70
2023/01/14 03:07:54;;;;;;;;;;;7.50;99.90;;;;;;5031163;28;20071;-71
2023/01/14 03:10:24;;;;;;;;;;;7.50;99.90;;;;;;5014406;28;19909;-70
2023/01/14 03:13:00;;;;;;;;;;;7.50;99.90;;;;;;5031291;28;20390;-70
2023/01/14 03:15:25;;;;;;;;;;;7.60;99.90;;;;;;5030848;28;19924;-70
2023/01/14 03:18:04;;;;;;;;;;;7.60;99.90;;;;;;5015186;28;19913;-71
2023/01/14 03:20:34;;;;;;;;;;;7.50;99.90;;;;;;5050528;28;20281;-70
2023/01/14 03:23:04;;;;;;;;;;;7.50;99.90;;;;;;5033989;28;19909;-70
2023/01/14 03:25:30;;;;;;;;;;;7.50;99.90;;;;;;5034015;28;20004;-70
2023/01/14 03:27:57;;;;;;;;;;;7.50;99.90;;;;;;5050586;28;19913;-70
2023/01/14 03:30:31;;;;;;;;;;;7.40;99.90;;;;;;5051082;28;19991;-70
2023/01/14 03:32:59;;;;;;;;;;;7.40;99.90;;;;;;5050789;28;19909;-70
2023/01/14 03:35:26;;;;;;;;;;;7.50;99.90;;;;;;5050663;28;19915;-69
2023/01/14 03:37:57;;;;;;;;;;;7.50;99.90;;;;;;5050608;28;20314;-70
2023/01/14 03:40:25;;;;;;;;;;;7.40;99.90;;;;;;5033770;28;19959;-69
2023/01/14 03:42:53;;;;;;;;;;;7.40;99.90;;;;;;5033813;28;19916;-69
2023/01/14 03:45:21;;;;;;;;;;;7.50;99.90;;;;;;5075054;28;19909;-69
2023/01/14 03:47:47;;;;;;;;;;;7.50;99.90;;;;;;5076538;28;19932;-70
2023/01/14 03:50:15;;;;;;;;;;;7.70;99.90;;;;;;5079547;28;20380;-70
2023/01/14 03:52:48;;;;;;;;;;;7.60;99.90;;;;;;5077801;28;19915;-70
2023/01/14 03:55:15;;;;;;;;;;;7.60;99.90;;;;;;5076438;28;19915;-70
2023/01/14 03:57:46;;;;;;;;;;;7.70;99.90;;;;;;5076054;28;20434;-70
2023/01/14 04:00:14;;;;;;;;;;;7.80;99.90;;;;;;5076319;28;19915;-71
2023/01/14 04:02:41;;;;;;;;;;;7.80;99.90;;;;;;5074662;28;19916;-71
2023/01/14 04:05:07;;;;;;;;;;;7.80;99.90;;;;;;5075903;28;20035;-71
2023/01/14 04:07:32;;;;;;;;;;;7.80;99.90;;;;;;5076130;28;20385;-71
2023/01/14 04:09:58;;;;;;;;;;;7.70;99.90;;;;;;5074854;28;20029;-71
2023/01/14 04:12:23;;;;;;;;;;;7.80;99.90;;;;;;5076282;28;19915;-70
2023/01/14 04:17:37;;;;;;;;;;;7.80;99.90;;;;;;5075915;28;19919;-70
2023/01/14 04:20:03;;;;;;;;;;;7.80;99.90;;;;;;5075326;28;19912;-70
2023/01/14 04:22:29;;;;;;;;;;;7.80;99.90;;;;;;5076059;28;19986;-70
2023/01/14 04:24:54;;;;;;;;;;;7.80;99.90;;;;;;5075487;28;19916;-70
2023/01/14 04:27:20;;;;;;;;;;;7.80;99.90;;;;;;5075506;28;19908;-70
2023/01/14 04:29:45;;;;;;;;;;;7.80;99.90;;;;;;5075412;28;19916;-70
2023/01/14 04:32:11;;;;;;;;;;;7.80;99.90;;;;;;5075416;28;19908;-70
2023/01/14 04:34:36;;;;;;;;;;;7.80;99.90;;;;;;5073890;28;20281;-70
2023/01/14 04:37:02;;;;;;;;;;;7.80;99.90;;;;;;5074986;28;19934;-70
2023/01/14 04:39:27;;;;;;;;;;;7.70;99.90;;;;;;5075588;28;20004;-70
2023/01/14 04:44:37;;;;;;;;;;;7.60;99.90;;;;;;5096075;28;20027;-70
2023/01/14 04:47:02;;;;;;;;;;;7.60;99.90;;;;;;5095502;28;19959;-70
2023/01/14 04:49:28;;;;;;;;;;;7.70;99.90;;;;;;5095009;28;19912;-70
2023/01/14 04:51:53;;;;;;;;;;;7.70;99.90;;;;;;5093777;28;19995;-70
2023/01/14 04:54:18;;;;;;;;;;;7.80;99.90;;;;;;5095879;28;20322;-71
2023/01/14 04:56:44;;;;;;;;;;;7.70;99.90;;;;;;5093638;28;20339;-71
2023/01/14 04:59:10;;;;;;;;;;;7.70;99.90;;;;;;5098081;28;19919;-70
2023/01/14 05:01:35;;;;;;;;;;;7.70;99.90;;;;;;5096688;28;20361;-69
2023/01/14 05:04:01;;;;;;;;;;;7.80;99.90;;;;;;5095140;28;19908;-70
2023/01/14 05:06:28;;;;;;;;;;;7.90;99.90;;;;;;5090289;28;19909;-70
2023/01/14 05:08:53;;;;;;;;;;;7.90;99.90;;;;;;5075120;28;19916;-70
2023/01/14 05:11:19;;;;;;;;;;;8.00;99.90;;;;;;5074452;28;20331;-70
2023/01/14 05:13:44;;;;;;;;;;;8.00;99.90;;;;;;5073123;28;19908;-70
2023/01/14 05:16:10;;;;;;;;;;;7.90;99.90;;;;;;5074279;28;20389;-71
2023/01/14 05:18:35;;;;;;;;;;;7.90;99.90;;;;;;5074401;28;20361;-70
2023/01/14 05:21:01;;;;;;;;;;;7.70;99.90;;;;;;5073112;28;19909;-70
2023/01/14 05:23:26;;;;;;;;;;;7.70;99.90;;;;;;5080113;28;19915;-70
2023/01/14 05:25:52;;;;;;;;;;;7.70;99.90;;;;;;5073880;28;19935;-70
2023/01/14 05:28:18;;;;;;;;;;;7.60;99.90;;;;;;5075496;28;19912;-70
2023/01/14 05:30:44;;;;;;;;;;;7.60;99.90;;;;;;5075681;28;20034;-70
2023/01/14 05:33:10;;;;;;;;;;;7.50;99.90;;;;;;5073874;28;19963;-70
2023/01/14 05:35:35;;;;;;;;;;;7.50;99.90;;;;;;5079108;28;19909;-70
2023/01/14 05:38:02;;;;;;;;;;;7.50;99.90;;;;;;5072573;28;20003;-70
2023/01/14 05:40:27;;;;;;;;;;;7.50;99.90;;;;;;5073953;28;20335;-70
2023/01/14 05:45:49;;;;;;;;;;;7.50;99.90;;;;;;5094572;28;19954;-71
2023/01/14 05:48:16;;;;;;;;;;;7.60;99.90;;;;;;5092823;28;20292;-71
2023/01/14 05:50:41;;;;;;;;;;;7.50;99.90;;;;;;5097608;28;19908;-71
2023/01/14 05:53:07;;;;;;;;;;;7.60;99.90;;;;;;5093901;28;19915;-71
2023/01/14 05:55:33;;;;;;;;;;;7.70;99.90;;;;;;5094060;28;20398;-70
2023/01/14 05:57:59;;;;;;;;;;;7.60;99.90;;;;;;5093071;28;19916;-70
2023/01/14 06:08:31;;;;;;;;;;;7.50;99.90;;;;;;5094477;28;19919;-71
2023/01/14 06:10:57;;;;;;;;;;;7.50;99.90;;;;;;5093444;28;19952;-71
2023/01/14 06:13:22;;;;;;;;;;;7.50;99.90;;;;;;5083797;28;19962;-70
2023/01/14 06:15:51;;;;;;;;;;;7.50;99.90;;;;;;5073626;28;19909;-70
2023/01/14 06:18:21;;;;;;;;;;;7.50;99.90;;;;;;5071513;28;19916;-70
2023/01/14 06:20:47;;;;;;;;;;;7.50;99.90;;;;;;5073959;28;19916;-70
2023/01/14 06:23:15;;;;;;;;;;;7.40;99.90;;;;;;5073557;28;19917;-70
2023/01/14 06:25:45;;;;;;;;;;;7.50;99.90;;;;;;5073604;28;20420;-70
2023/01/14 06:28:10;;;;;;;;;;;7.50;99.90;;;;;;5072390;28;19916;-70
2023/01/14 06:30:36;;;;;;;;;;;7.50;99.90;;;;;;5072455;28;20269;-71
2023/01/14 06:33:01;;;;;;;;;;;7.60;99.90;;;;;;5073544;28;20358;-70
2023/01/14 06:35:26;;;;;;;;;;;7.50;99.90;;;;;;5072018;28;20392;-70
2023/01/14 06:37:52;;;;;;;;;;;7.70;99.90;;;;;;5073870;28;20024;-70
2023/01/14 06:40:19;;;;;;;;;;;7.70;99.90;;;;;;5073372;28;19909;-70
2023/01/14 06:42:45;;;;;;;;;;;7.60;99.90;;;;;;5072602;28;19912;-72
2023/01/14 06:45:11;;;;;;;;;;;7.60;99.90;;;;;;5072083;28;20277;-72
2023/01/14 06:47:37;;;;;;;;;;;7.70;99.90;;;;;;5073063;28;19908;-71
2023/01/14 06:50:03;;;;;;;;;;;7.80;99.90;;;;;;5071485;28;20009;-71
2023/01/14 06:52:29;;;;;;;;;;;7.80;99.90;;;;;;5071950;28;20280;-72
2023/01/14 06:54:55;;;;;;;;;;;7.70;99.90;;;;;;5071895;28;19908;-72
2023/01/14 06:57:21;;;;;;;;;;;7.70;99.90;;;;;;5071990;28;19938;-72
2023/01/14 06:59:47;;;;;;;;;;;7.70;99.90;;;;;;5073262;28;19952;-72
2023/01/14 07:02:12;;;;;;;;;;;7.80;99.90;;;;;;5076035;28;19913;-71
2023/01/14 07:04:38;;;;;;;;;;;7.80;99.90;;;;;;5077074;28;19916;-72
2023/01/14 07:07:04;;;;;;;;;;;7.90;99.90;;;;;;5080505;28;19930;-71
2023/01/14 07:09:29;;;;;;;;;;;8.00;99.90;;;;;;5083282;28;19912;-71
2023/01/14 07:11:55;;;;;;;;;;;8.10;99.90;;;;;;5084276;28;20207;-71
2023/01/14 07:14:20;;;;;;;;;;;8.20;99.90;;;;;;5087683;28;19908;-71
2023/01/14 07:16:46;;;;;;;;;;;8.30;99.90;;;;;;5091127;28;19909;-70
2023/01/14 07:19:11;;;;;;;;;;;8.40;99.90;;;;;;5090496;28;19916;-70
2023/01/14 07:21:37;;;;;;;;;;;8.40;99.90;;;;;;5093863;28;19971;-71
2023/01/14 07:24:03;;;;;;;;;;;8.40;99.90;;;;;;5094778;28;20054;-71
2023/01/14 07:26:29;;;;;;;;;;;8.40;99.90;;;;;;5093157;28;19897;-71
2023/01/14 07:28:54;;;;;;;;;;;8.40;99.90;;;;;;5082890;28;19912;-71
2023/01/14 07:31:20;;;;;;;;;;;8.40;99.90;;;;;;5086407;28;19912;-70
2023/01/14 07:33:45;;;;;;;;;;;8.40;99.90;;;;;;5093869;28;19944;-71
2023/01/14 07:36:11;;;;;;;;;;;8.50;99.90;;;;;;5096257;28;19908;-71
2023/01/14 07:38:36;;;;;;;;;;;8.40;99.90;;;;;;5093549;28;19908;-71
2023/01/14 07:41:02;;;;;;;;;;;8.50;99.90;;;;;;5087596;28;19908;-72
2023/01/14 07:43:28;;;;;;;;;;;8.50;99.90;;;;;;5077501;28;19915;-72
2023/01/14 07:45:58;;;;;;;;;;;8.40;99.90;;;;;;5077138;28;19909;-72
2023/01/14 07:48:23;;;;;;;;;;;8.50;99.90;;;;;;5075623;28;20284;-71
2023/01/14 07:50:49;;;;;;;;;;;8.50;99.90;;;;;;5076713;28;19912;-71
2023/01/14 07:53:14;;;;;;;;;;;8.40;99.90;;;;;;5077453;28;20330;-72
2023/01/14 07:55:40;;;;;;;;;;;8.50;99.90;;;;;;5076166;28;19908;-72
2023/01/14 07:58:05;;;;;;;;;;;8.50;99.90;;;;;;5074622;28;19912;-72
2023/01/14 08:00:31;;;;;;;;;;;8.50;99.90;;;;;;5078630;28;19908;-72
2023/01/14 08:02:56;;;;;;;;;;;8.50;99.90;;;;;;5076196;28;19915;-71
2023/01/14 08:05:22;;;;;;;;;;;8.50;99.90;;;;;;5075093;28;19951;-71
2023/01/14 08:07:47;;;;;;;;;;;8.50;99.90;;;;;;5074817;28;19961;-71
2023/01/14 08:10:13;;;;;;;;;;;8.70;99.90;;;;;;5075376;28;20408;-72
2023/01/14 08:12:38;;;;;;;;;;;8.70;99.90;;;;;;5075618;28;20376;-71
2023/01/14 08:15:05;;;;;;;;;;;8.70;99.90;;;;;;5076020;28;19909;-71
2023/01/14 08:17:31;;;;;;;;;;;8.70;99.90;;;;;;5079086;28;19908;-70
2023/01/14 08:19:56;;;;;;;;;;;8.80;99.90;;;;;;5085617;28;20365;-71
2023/01/14 08:22:22;;;;;;;;;;;8.90;99.90;;;;;;5094426;28;19908;-71
2023/01/14 08:24:48;;;;;;;;;;;9.00;99.90;;;;;;5076262;28;19951;-71
2023/01/14 08:27:13;;;;;;;;;;;8.90;99.90;;;;;;5074168;28;20229;-71
2023/01/14 08:29:39;;;;;;;;;;;8.90;99.90;;;;;;5074690;28;19912;-69
2023/01/14 08:32:04;;;;;;;;;;;9.00;99.90;;;;;;5073692;28;19954;-68
2023/01/14 08:34:30;;;;;;;;;;;9.10;99.90;;;;;;5074988;28;19915;-71
2023/01/14 08:36:56;;;;;;;;;;;9.20;99.90;;;;;;5075334;28;19916;-72
2023/01/14 08:39:21;;;;;;;;;;;9.30;99.90;;;;;;5077079;28;19908;-71
2023/01/14 08:41:46;;;;;;;;;;;9.30;99.90;;;;;;5076300;28;19908;-71
2023/01/14 08:44:12;;;;;;;;;;;9.40;99.90;;;;;;5075402;28;20049;-71
2023/01/14 08:46:41;;;;;;;;;;;9.50;99.90;;;;;;5075442;28;20353;-70
2023/01/14 08:49:09;;;;;;;;;;;9.40;99.90;;;;;;5075862;28;19939;-71
2023/01/14 08:51:34;;;;;;;;;;;9.50;99.90;;;;;;5077688;28;19916;-72
2023/01/14 08:54:03;;;;;;;;;;;9.40;99.90;;;;;;5077165;28;19908;-72
2023/01/14 08:56:28;;;;;;;;;;;9.50;99.90;;;;;;5075657;28;20281;-70
2023/01/14 08:58:54;;;;;;;;;;;9.30;99.90;;;;;;5076710;28;19928;-72
2023/01/14 09:01:19;;;;;;;;;;;9.60;99.90;;;;;;5075013;28;20281;-71
2023/01/14 09:03:46;;;;;;;;;;;9.60;99.90;;;;;;5073809;28;20003;-71
2023/01/14 09:06:12;;;;;;;;;;;9.50;99.90;;;;;;5073849;28;19962;-72
2023/01/14 09:17:06;;;;;;;;;;;9.50;99.90;;;;;;5074376;28;19995;-72
2023/01/14 09:19:36;;;;;;;;;;;9.60;99.90;;;;;;5075037;28;19915;-71
2023/01/14 09:22:03;;;;;;;;;;;9.70;99.90;;;;;;5074418;28;19995;-71
2023/01/14 09:24:28;;;;;;;;;;;9.80;99.90;;;;;;5074599;28;20334;-71
2023/01/14 09:26:53;;;;;;;;;;;9.70;99.90;;;;;;5075879;28;20365;-71
2023/01/14 09:29:19;;;;;;;;;;;9.70;99.90;;;;;;5076664;28;19977;-73
2023/01/14 09:31:44;;;;;;;;;;;9.60;99.90;;;;;;5076268;28;20004;-73
2023/01/14 09:34:10;;;;;;;;;;;9.60;99.90;;;;;;5072969;28;19941;-72
2023/01/14 09:36:36;;;;;;;;;;;9.50;99.90;;;;;;5074099;28;19909;-72
2023/01/14 09:39:01;;;;;;;;;;;9.40;99.90;;;;;;5074402;28;20013;-72
2023/01/14 09:41:31;;;;;;;;;;;9.40;99.90;;;;;;5074042;28;19996;-72
2023/01/14 09:43:57;;;;;;;;;;;9.50;99.90;;;;;;5072187;28;20277;-71
2023/01/14 09:46:24;;;;;;;;;;;9.40;99.90;;;;;;5074069;28;19908;-72
2023/01/14 09:48:50;;;;;;;;;;;9.40;99.90;;;;;;5073727;28;20007;-73
2023/01/14 09:51:19;;;;;;;;;;;9.40;99.90;;;;;;5072490;28;19997;-73
2023/01/14 09:53:57;;;;;;;;;;;9.50;99.90;;;;;;5073691;28;19908;-72
2023/01/14 09:56:25;;;;;;;;;;;9.60;99.90;;;;;;5073810;28;19923;-72
2023/01/14 09:58:57;;;;;;;;;;;9.70;99.90;;;;;;5075997;28;19915;-75
2023/01/14 10:01:23;;;;;;;;;;;9.70;99.90;;;;;;5083606;28;19912;-74
2023/01/14 10:03:56;;;;;;;;;;;9.80;99.90;;;;;;5076019;28;20419;-74
2023/01/14 10:06:21;;;;;;;;;;;9.80;99.90;;;;;;5077831;28;19908;-70
2023/01/14 10:08:58;;;;;;;;;;;9.80;99.90;;;;;;5072825;28;20387;-70
2023/01/14 10:11:25;;;;;;;;;;;9.90;99.90;;;;;;5073582;28;19912;-71
2023/01/14 10:13:59;;;;;;;;;;;9.90;99.90;;;;;;5073708;28;19915;-71
2023/01/14 10:16:27;;;;;;;;;;;10.00;99.90;;;;;;5073632;28;19908;-70
2023/01/14 10:18:52;;;;;;;;;;;10.00;99.90;;;;;;5074378;28;19916;-71
2023/01/14 10:21:22;;;;;;;;;;;10.10;99.90;;;;;;5076452;28;19912;-70
2023/01/14 10:23:47;;;;;;;;;;;10.00;99.90;;;;;;5090564;28;19912;-68
2023/01/14 10:26:14;;;;;;;;;;;10.00;99.90;;;;;;5089738;28;20250;-69
2023/01/14 10:28:41;;;;;;;;;;;10.00;99.90;;;;;;5089142;28;20007;-69
2023/01/14 10:31:10;;;;;;;;;;;10.10;99.90;;;;;;5085926;28;19912;-69
2023/01/14 10:33:35;;;;;;;;;;;10.10;99.90;;;;;;5079733;28;19946;-68
2023/01/14 10:36:02;;;;;;;;;;;10.10;99.90;;;;;;5073110;28;20300;-68
2023/01/14 10:38:28;;;;;;;;;;;10.10;99.90;;;;;;5073159;28;19958;-69
2023/01/14 10:40:57;;;;;;;;;;;10.20;99.90;;;;;;5074203;28;19912;-72
2023/01/14 10:43:34;;;;;;;;;;;10.20;99.90;;;;;;5076258;28;19949;-72
2023/01/14 10:46:00;;;;;;;;;;;10.20;99.90;;;;;;5074909;28;19909;-71
2023/01/14 10:48:28;;;;;;;;;;;10.10;99.90;;;;;;5090073;28;19912;-70
2023/01/14 10:50:53;;;;;;;;;;;10.20;99.90;;;;;;5076794;28;20242;-71
2023/01/14 10:53:23;;;;;;;;;;;10.20;99.90;;;;;;5075534;28;19909;-73
2023/01/14 10:55:52;;;;;;;;;;;10.10;99.90;;;;;;5077094;28;19982;-74
2023/01/14 10:58:21;;;;;;;;;;;10.20;99.90;;;;;;5075931;28;20010;-73
2023/01/14 11:00:50;;;;;;;;;;;10.30;99.90;;;;;;5077326;28;19954;-73
2023/01/14 11:03:29;;;;;;;;;;;10.30;99.90;;;;;;5076911;28;19962;-68
2023/01/14 11:05:55;;;;;;;;;;;10.30;99.90;;;;;;5076756;28;20094;-68
2023/01/14 11:08:25;;;;;;;;;;;10.40;99.90;;;;;;5076539;28;19912;-68
2023/01/14 11:10:56;;;;;;;;;;;10.30;99.90;;;;;;5076995;28;20341;-72
2023/01/14 11:13:24;;;;;;;;;;;10.40;99.90;;;;;;5078139;28;20001;-73
2023/01/14 11:15:50;;;;;;;;;;;10.50;99.90;;;;;;5083127;28;19912;-73
2023/01/14 11:18:18;;;;;;;;;;;10.50;99.90;;;;;;5075549;28;19912;-73
2023/01/14 11:21:10;;;;;;;;;;;10.60;99.90;;;;;;5076723;28;20297;-70
2023/01/14 11:23:37;;;;;;;;;;;10.50;99.90;;;;;;5073932;28;20331;-69
2023/01/14 11:26:08;;;;;;;;;;;10.40;99.90;;;;;;5076662;28;19978;-68
2023/01/14 11:28:36;;;;;;;;;;;10.50;99.90;;;;;;5076442;28;19966;-71
2023/01/14 11:31:01;;;;;;;;;;;10.50;99.90;;;;;;5075445;28;19908;-71
2023/01/14 11:33:27;;;;;;;;;;;10.50;99.90;;;;;;5076391;28;20331;-69
2023/01/14 11:35:54;;;;;;;;;;;10.40;99.90;;;;;;5075137;28;19913;-69
2023/01/14 11:38:22;;;;;;;;;;;10.40;99.90;;;;;;5076622;28;19963;-68
2023/01/14 11:43:33;;;;;;;;;;;10.40;99.90;;;;;;5077275;28;19919;-69
2023/01/14 11:46:05;;;;;;;;;;;10.40;99.90;;;;;;5075145;28;20300;-68
2023/01/14 11:48:31;;;;;;;;;;;10.40;99.90;;;;;;5076308;28;19948;-67
2023/01/14 11:50:58;;;;;;;;;;;10.40;99.90;;;;;;5078333;28;20338;-70
2023/01/14 11:53:26;;;;;;;;;;;10.40;99.90;;;;;;5076008;28;19913;-68
2023/01/14 11:55:56;;;;;;;;;;;10.40;99.90;;;;;;5078004;28;19920;-68
2023/01/14 11:58:21;;;;;;;;;;;10.30;99.90;;;;;;5076333;28;20320;-68
2023/01/14 12:00:55;;;;;;;;;;;10.50;99.90;;;;;;5075662;28;19909;-66
2023/01/14 12:03:32;;;;;;;;;;;10.50;99.90;;;;;;5074773;28;19915;-68
2023/01/14 12:05:57;;;;;;;;;;;10.50;99.90;;;;;;5074504;28;20345;-68
2023/01/14 12:08:27;;;;;;;;;;;10.50;99.90;;;;;;5075920;28;19917;-69
2023/01/14 12:10:57;;;;;;;;;;;10.50;99.90;;;;;;5075942;28;19909;-68
2023/01/14 12:19:11;;;;;;;;;;;10.40;99.90;;;;;;5076073;28;19915;-69
2023/01/14 12:21:39;;;;;;;;;;;10.50;99.90;;;;;;5076453;28;19908;-71
2023/01/14 12:24:20;;;;;;;;;;;10.60;99.90;;;;;;5074628;28;19912;-70
2023/01/14 12:26:46;;;;;;;;;;;10.60;99.90;;;;;;5075691;28;19915;-71
2023/01/14 12:29:15;;;;;;;;;;;10.60;99.90;;;;;;5074398;28;19951;-71
2023/01/14 12:31:44;;;;;;;;;;;10.60;99.90;;;;;;5075613;28;20280;-71
2023/01/14 12:34:36;;;;;;;;;;;10.60;99.90;;;;;;5073999;28;19913;-68
2023/01/14 12:37:10;;;;;;;;;;;10.70;99.90;;;;;;5076017;28;19908;-72
2023/01/14 12:48:06;;;;;;;;;;;10.90;99.90;;;;;;5092740;28;19954;-71
2023/01/14 12:50:32;;;;;;;;;;;11.00;99.90;;;;;;5097710;28;19908;-70
2023/01/14 12:52:58;;;;;;;;;;;11.10;99.90;;;;;;5099843;28;19908;-71
2023/01/14 12:55:37;;;;;;;;;;;11.10;99.90;;;;;;5093574;28;19915;-68
2023/01/14 12:58:04;;;;;;;;;;;11.20;99.90;;;;;;5078761;28;20010;-69
2023/01/14 13:00:31;;;;;;;;;;;11.20;99.90;;;;;;5093637;28;20225;-69
2023/01/14 13:02:59;;;;;;;;;;;11.10;99.90;;;;;;5089061;28;19908;-69
2023/01/14 13:05:27;;;;;;;;;;;11.10;99.90;;;;;;5076204;28;19909;-68
2023/01/14 13:08:01;;;;;;;;;;;11.20;99.90;;;;;;5075604;28;19908;-68
2023/01/14 13:10:26;;;;;;;;;;;11.20;99.90;;;;;;5086912;28;19990;-68
2023/01/14 13:12:52;;;;;;;;;;;11.10;99.90;;;;;;5081801;28;19912;-66
2023/01/14 13:15:17;;;;;;;;;;;11.00;99.90;;;;;;5086692;28;19908;-69
2023/01/14 13:17:44;;;;;;;;;;;10.90;99.90;;;;;;5095870;28;19911;-68
2023/01/14 13:20:16;;;;;;;;;;;11.10;99.90;;;;;;5097951;28;19908;-69
2023/01/14 13:22:43;;;;;;;;;;;11.20;99.90;;;;;;5098100;28;20380;-68
2023/01/14 13:25:15;;;;;;;;;;;11.20;99.90;;;;;;5099354;28;19908;-69
2023/01/14 13:27:41;;;;;;;;;;;11.30;99.90;;;;;;5095959;28;19908;-68
2023/01/14 13:30:16;;;;;;;;;;;11.40;99.90;;;;;;5095569;28;19912;-71
2023/01/14 13:33:00;;;;;;;;;;;11.40;99.90;;;;;;5097656;28;19958;-75
2023/01/14 13:35:27;;;;;;;;;;;11.30;99.90;;;;;;5098020;28;19920;-70
2023/01/14 13:37:53;;;;;;;;;;;11.20;99.90;;;;;;5098091;28;19980;-74
2023/01/14 13:40:27;;;;;;;;;;;11.10;99.90;;;;;;5079993;28;20353;-69
2023/01/14 13:42:57;;;;;;;;;;;11.20;99.90;;;;;;5082748;28;19982;-72
2023/01/14 13:45:29;;;;;;;;;;;11.10;99.90;;;;;;5078379;28;20339;-69
2023/01/14 13:47:57;;;;;;;;;;;11.20;99.90;;;;;;5080841;28;20392;-71
2023/01/14 13:50:27;;;;;;;;;;;11.10;99.90;;;;;;5078079;28;20335;-69
2023/01/14 13:53:00;;;;;;;;;;;11.10;99.90;;;;;;5074475;28;20011;-69
2023/01/14 13:55:30;;;;;;;;;;;11.20;99.90;;;;;;5076236;28;19952;-72
2023/01/14 13:57:59;;;;;;;;;;;11.30;99.90;;;;;;5077969;28;19912;-71
2023/01/14 14:00:37;;;;;;;;;;;11.30;99.90;;;;;;5081086;28;19913;-70
2023/01/14 14:03:22;;;;;;;;;;;11.30;99.90;;;;;;5092790;28;19909;-68
2023/01/14 14:06:07;;;;;;;;;;;11.30;99.90;;;;;;5077110;28;20337;-68
2023/01/14 14:08:33;;;;;;;;;;;11.20;99.90;;;;;;5073859;28;19916;-69
2023/01/14 14:11:01;;;;;;;;;;;11.10;99.90;;;;;;5078076;28;19999;-69
2023/01/14 14:16:16;;;;;;;;;;;11.10;99.90;;;;;;5081312;28;20312;-70
2023/01/14 14:18:47;;;;;;;;;;;11.10;99.90;;;;;;5075287;28;19998;-70
2023/01/14 14:21:14;;;;;;;;;;;11.10;99.90;;;;;;5073629;28;20002;-69
2023/01/14 14:23:42;;;;;;;;;;;11.20;99.90;;;;;;5087424;28;20369;-69
2023/01/14 14:26:15;;;;;;;;;;;11.10;99.90;;;;;;5093559;28;20000;-68
2023/01/14 14:28:41;;;;;;;;;;;11.20;99.90;;;;;;5089249;28;19919;-69
2023/01/14 14:31:13;;;;;;;;;;;11.10;99.90;;;;;;5093840;28;20378;-69
2023/01/14 14:33:42;;;;;;;;;;;11.20;99.90;;;;;;5092252;28;19908;-69
2023/01/14 14:36:15;;;;;;;;;;;11.30;99.90;;;;;;5093301;28;19908;-69
2023/01/14 14:38:46;;;;;;;;;;;11.20;99.90;;;;;;5089063;28;19909;-69
2023/01/14 14:41:14;;;;;;;;;;;11.40;99.90;;;;;;5074513;28;20221;-69
2023/01/14 14:43:40;;;;;;;;;;;11.40;99.90;;;;;;5073707;28;20015;-69
2023/01/14 14:46:07;;;;;;;;;;;11.50;99.90;;;;;;5073395;28;20357;-69
2023/01/14 14:48:33;;;;;;;;;;;11.40;99.90;;;;;;5079349;28;19918;-69
2023/01/14 14:50:59;;;;;;;;;;;11.30;99.90;;;;;;5072159;28;20356;-69
2023/01/14 14:53:26;;;;;;;;;;;11.10;99.90;;;;;;5073878;28;19909;-70
2023/01/14 14:55:53;;;;;;;;;;;11.00;99.90;;;;;;5073145;28;19919;-70
2023/01/14 14:58:19;;;;;;;;;;;11.00;99.90;;;;;;5074010;28;20377;-69
2023/01/14 15:00:50;;;;;;;;;;;11.10;99.90;;;;;;5074418;28;20063;-67
2023/01/14 15:03:20;;;;;;;;;;;11.10;99.90;;;;;;5074591;28;19919;-67
2023/01/14 15:05:46;;;;;;;;;;;11.10;99.90;;;;;;5075287;28;19908;-67
2023/01/14 15:08:15;;;;;;;;;;;11.10;99.90;;;;;;5073132;28;20054;-67
2023/01/14 15:10:43;;;;;;;;;;;11.00;99.90;;;;;;5074642;28;20293;-67
2023/01/14 15:13:29;;;;;;;;;;;11.00;99.90;;;;;;5073547;28;19908;-67
2023/01/14 15:16:10;;;;;;;;;;;11.00;99.90;;;;;;5074068;28;20054;-67
2023/01/14 15:18:46;;;;;;;;;;;10.90;99.90;;;;;;5071980;28;19956;-67